createdAt,value
2023-04-19T00:01:06.093Z,11.25
2023-04-19T00:03:39.439Z,11.09
2023-04-19T00:06:15.378Z,11.20
2023-04-19T00:08:48.135Z,11.23
2023-04-19T00:11:22.438Z,11.27
2023-04-19T00:13:55.271Z,11.27
2023-04-19T00:16:28.307Z,11.19
2023-04-19T00:19:01.653Z,11.26
2023-04-19T00:21:34.497Z,11.23
2023-04-19T00:24:07.848Z,11.18
2023-04-19T00:26:42.025Z,11.12
2023-04-19T00:29:14.796Z,11.09
2023-04-19T00:31:47.789Z,11.19
2023-04-19T00:34:20.637Z,11.10
2023-04-19T00:36:53.827Z,11.14
2023-04-19T00:39:26.736Z,11.18
2023-04-19T00:42:02.121Z,11.19
2023-04-19T00:44:35.069Z,11.21
2023-04-19T00:47:08.168Z,11.08
2023-04-19T00:49:41.601Z,11.00
2023-04-19T00:52:16.047Z,11.09
2023-04-19T00:54:49.686Z,11.08
2023-04-19T00:57:24.795Z,11.02
2023-04-19T00:59:58.118Z,11.15
2023-04-19T01:02:31.169Z,11.07
2023-04-19T01:05:04.607Z,10.99
2023-04-19T01:07:38.837Z,11.10
2023-04-19T01:10:11.732Z,11.09
2023-04-19T01:12:45.903Z,10.98
2023-04-19T01:15:18.856Z,11.07
2023-04-19T01:17:56.338Z,11.02
2023-04-19T01:20:29.236Z,11.02
2023-04-19T01:23:03.380Z,11.00
2023-04-19T01:25:37.542Z,10.81
2023-04-19T01:28:10.350Z,10.96
2023-04-19T01:30:43.961Z,10.89
2023-04-19T01:33:16.786Z,10.91
2023-04-19T01:35:50.190Z,10.88
2023-04-19T01:38:24.442Z,10.80
2023-04-19T01:40:57.260Z,10.81
2023-04-19T01:43:30.912Z,10.85
2023-04-19T01:46:03.755Z,10.76
2023-04-19T01:48:36.544Z,10.72
2023-04-19T01:51:09.369Z,10.74
2023-04-19T01:53:43.787Z,10.63
2023-04-19T01:56:16.702Z,10.66
2023-04-19T01:58:49.611Z,10.69
2023-04-19T02:01:22.950Z,10.60
2023-04-19T02:03:58.308Z,10.56
2023-04-19T02:06:33.133Z,10.50
2023-04-19T02:09:10.519Z,10.34
2023-04-19T02:11:43.687Z,10.33
2023-04-19T02:14:16.761Z,10.24
2023-04-19T02:16:50.139Z,10.28
2023-04-19T02:19:23.043Z,10.38
2023-04-19T02:21:57.586Z,10.08
2023-04-19T02:24:31.864Z,10.26
2023-04-19T02:27:04.716Z,10.35
2023-04-19T02:29:39.055Z,10.24
2023-04-19T02:32:13.062Z,10.03
2023-04-19T02:34:45.884Z,10.20
2023-04-19T02:37:19.253Z,10.14
2023-04-19T02:39:53.632Z,10.04
2023-04-19T02:42:27.399Z,10.12
2023-04-19T02:45:00.191Z,10.11
2023-04-19T02:47:33.041Z,10.10
2023-04-19T02:50:07.026Z,10.20
2023-04-19T02:52:43.217Z,10.08
2023-04-19T02:55:17.393Z,10.18
2023-04-19T02:57:52.067Z,10.22
2023-04-19T03:00:24.983Z,10.12
2023-04-19T03:03:09.750Z,10.08
2023-04-19T03:05:42.655Z,10.09
2023-04-19T03:08:15.515Z,10.13
2023-04-19T03:10:52.369Z,9.78
2023-04-19T03:13:25.459Z,9.81
2023-04-19T03:15:58.270Z,9.97
2023-04-19T03:18:31.365Z,9.87
2023-04-19T03:21:05.345Z,9.99
2023-04-19T03:23:46.765Z,9.65
2023-04-19T03:26:21.466Z,9.79
2023-04-19T03:28:57.724Z,9.77
2023-04-19T03:31:46.338Z,9.59
2023-04-19T03:34:19.743Z,9.57
2023-04-19T03:36:54.791Z,9.60
2023-04-19T03:39:28.133Z,9.29
2023-04-19T03:42:07.677Z,9.42
2023-04-19T03:44:50.430Z,9.42
2023-04-19T03:47:24.687Z,9.12
2023-04-19T03:50:01.472Z,9.15
2023-04-19T03:52:36.559Z,9.19
2023-04-19T03:55:12.229Z,9.19
2023-04-19T03:57:47.916Z,9.01
2023-04-19T04:00:27.348Z,9.10
2023-04-19T04:03:05.055Z,8.88
2023-04-19T04:05:38.307Z,8.93
2023-04-19T04:08:11.208Z,8.89
2023-04-19T04:10:44.151Z,8.76
2023-04-19T04:13:18.334Z,8.80
2023-04-19T04:15:56.930Z,8.81
2023-04-19T04:18:30.790Z,8.72
2023-04-19T04:21:03.625Z,8.74
2023-04-19T04:23:37.728Z,8.74
2023-04-19T04:26:14.110Z,8.64
2023-04-19T04:29:08.694Z,8.47
2023-04-19T04:31:42.679Z,8.62
2023-04-19T04:34:16.552Z,8.57
2023-04-19T04:36:56.819Z,8.55
2023-04-19T04:39:30.799Z,8.54
2023-04-19T04:42:05.424Z,8.60
2023-04-19T04:44:39.848Z,8.50
2023-04-19T04:47:14.748Z,8.43
2023-04-19T04:49:53.917Z,8.44
2023-04-19T04:52:27.171Z,8.37
2023-04-19T04:55:23.446Z,8.27
2023-04-19T04:57:56.373Z,8.52
2023-04-19T05:00:50.856Z,8.46
2023-04-19T05:03:24.067Z,8.55
2023-04-19T05:06:02.827Z,8.73
2023-04-19T05:08:36.640Z,8.51
2023-04-19T05:11:21.930Z,8.63
2023-04-19T05:13:55.152Z,8.71
2023-04-19T05:16:30.350Z,8.63
2023-04-19T05:19:03.602Z,8.59
2023-04-19T05:21:40.909Z,8.69
2023-04-19T05:24:15.846Z,8.65
2023-04-19T05:26:49.505Z,8.58
2023-04-19T05:29:22.544Z,8.67
2023-04-19T05:32:00.809Z,8.72
2023-04-19T05:34:37.125Z,8.84
2023-04-19T05:37:10.653Z,8.85
2023-04-19T05:39:44.671Z,8.90
2023-04-19T05:42:17.709Z,8.76
2023-04-19T05:44:51.032Z,8.49
2023-04-19T05:47:25.625Z,8.64
2023-04-19T05:50:20.461Z,8.37
2023-04-19T05:53:07.532Z,8.47
2023-04-19T05:55:40.485Z,8.38
2023-04-19T05:58:13.321Z,8.03
2023-04-19T06:00:46.583Z,8.21
2023-04-19T06:03:24.527Z,8.52
2023-04-19T06:05:59.281Z,8.61
2023-04-19T06:08:32.121Z,8.73
2023-04-19T06:11:11.912Z,8.54
2023-04-19T06:13:56.088Z,8.45
2023-04-19T06:16:28.951Z,8.38
2023-04-19T06:19:03.526Z,8.40
2023-04-19T06:21:36.387Z,8.32
2023-04-19T06:24:09.448Z,8.28
2023-04-19T06:26:42.284Z,8.22
2023-04-19T06:29:15.079Z,8.63
2023-04-19T06:31:48.105Z,8.70
2023-04-19T06:34:22.577Z,8.73
2023-04-19T06:36:55.478Z,8.67
2023-04-19T06:39:28.545Z,8.60
2023-04-19T06:42:02.231Z,8.74
2023-04-19T06:44:35.164Z,8.74
2023-04-19T06:47:08.025Z,8.67
2023-04-19T06:49:42.188Z,8.49
2023-04-19T06:52:15.008Z,8.33
2023-04-19T06:54:49.138Z,8.83
2023-04-19T06:57:21.981Z,8.99
2023-04-19T06:59:56.525Z,8.95
2023-04-19T07:02:29.539Z,9.04
2023-04-19T07:05:04.096Z,9.05
2023-04-19T07:07:38.220Z,9.17
2023-04-19T07:10:12.703Z,9.14
2023-04-19T07:12:45.495Z,9.41
2023-04-19T07:15:18.578Z,9.30
2023-04-19T07:17:51.387Z,9.35
2023-04-19T07:20:25.661Z,9.42
2023-04-19T07:22:58.632Z,9.39
2023-04-19T07:25:31.422Z,9.57
2023-04-19T07:28:04.554Z,9.47
2023-04-19T07:30:37.525Z,9.59
2023-04-19T07:33:10.805Z,9.60
2023-04-19T07:35:45.261Z,9.48
2023-04-19T07:38:19.114Z,9.76
2023-04-19T07:40:52.000Z,9.62
2023-04-19T07:43:24.775Z,9.84
2023-04-19T07:45:57.587Z,9.89
2023-04-19T07:48:30.630Z,10.05
2023-04-19T07:51:11.314Z,9.82
2023-04-19T07:53:44.830Z,10.24
2023-04-19T07:56:17.612Z,9.97
2023-04-19T07:59:04.391Z,10.13
2023-04-19T08:01:40.242Z,10.60
2023-04-19T08:04:13.430Z,10.71
2023-04-19T08:06:47.786Z,10.74
2023-04-19T08:09:20.617Z,10.33
2023-04-19T08:11:53.540Z,10.47
2023-04-19T08:14:37.696Z,10.39
2023-04-19T08:17:26.778Z,10.92
2023-04-19T08:20:02.618Z,11.13
2023-04-19T08:22:37.145Z,10.99
2023-04-19T08:25:11.216Z,10.85
2023-04-19T08:27:44.036Z,10.85
2023-04-19T08:30:17.192Z,11.03
2023-04-19T08:32:50.958Z,11.59
2023-04-19T08:35:25.152Z,11.73
2023-04-19T08:37:59.436Z,11.53
2023-04-19T08:40:32.581Z,11.56
2023-04-19T08:43:06.967Z,11.13
2023-04-19T08:45:40.600Z,11.29
2023-04-19T08:48:15.708Z,11.87
2023-04-19T08:51:04.543Z,12.17
2023-04-19T08:53:40.653Z,12.05
2023-04-19T08:56:24.047Z,12.13
2023-04-19T08:59:17.636Z,12.96
2023-04-19T09:01:51.496Z,12.39
2023-04-19T09:04:36.400Z,12.43
2023-04-19T09:07:10.274Z,12.73
2023-04-19T09:09:55.997Z,12.51
2023-04-19T09:12:35.622Z,12.79
2023-04-19T09:15:10.730Z,12.85
2023-04-19T09:17:46.028Z,12.81
2023-04-19T09:20:36.360Z,13.06
2023-04-19T09:23:12.722Z,13.05
2023-04-19T09:26:15.083Z,12.73
2023-04-19T09:28:56.908Z,12.59
2023-04-19T09:31:48.152Z,12.88
2023-04-19T09:34:24.438Z,13.21
2023-04-19T09:37:11.051Z,13.17
2023-04-19T09:39:47.775Z,13.02
2023-04-19T09:42:38.605Z,13.15
2023-04-19T09:48:02.425Z,13.37
2023-04-19T09:50:50.537Z,13.36
2023-04-19T09:53:29.144Z,13.86
2023-04-19T09:56:03.344Z,13.63
2023-04-19T09:58:50.757Z,13.68
2023-04-19T10:01:29.451Z,14.27
2023-04-19T10:04:19.850Z,13.85
2023-04-19T10:07:25.212Z,14.45
2023-04-19T10:09:54.505Z,13.54
2023-04-19T10:12:52.258Z,13.69
2023-04-19T10:15:24.731Z,14.17
2023-04-19T10:17:57.744Z,14.24
2023-04-19T10:20:37.564Z,14.66
2023-04-19T10:23:10.778Z,14.61
2023-04-19T10:25:47.355Z,14.80
2023-04-19T10:28:20.209Z,14.22
2023-04-19T10:31:02.045Z,14.13
2023-04-19T10:33:38.144Z,14.27
2023-04-19T10:36:17.436Z,15.39
2023-04-19T10:38:53.495Z,15.63
2023-04-19T10:41:57.904Z,15.46
2023-04-19T10:44:30.733Z,15.15
2023-04-19T10:47:06.844Z,15.05
2023-04-19T10:49:46.338Z,14.82
2023-04-19T10:52:29.407Z,14.92
2023-04-19T10:55:05.495Z,14.77
2023-04-19T10:58:02.574Z,15.32
2023-04-19T11:00:36.667Z,15.20
2023-04-19T11:03:55.903Z,16.01
2023-04-19T11:06:28.820Z,15.09
2023-04-19T11:09:02.983Z,15.41
2023-04-19T11:11:36.480Z,15.36
2023-04-19T11:14:12.338Z,16.19
2023-04-19T11:16:46.443Z,16.11
2023-04-19T11:19:23.464Z,16.73
2023-04-19T11:22:00.745Z,15.51
2023-04-19T11:24:36.142Z,16.23
2023-04-19T11:27:09.583Z,15.41
2023-04-19T11:29:42.420Z,16.64
2023-04-19T11:32:15.236Z,16.54
2023-04-19T11:34:49.372Z,17.19
2023-04-19T11:37:22.171Z,16.56
2023-04-19T11:39:55.412Z,16.41
2023-04-19T11:42:28.411Z,17.05
2023-04-19T11:45:01.464Z,17.30
2023-04-19T11:47:34.639Z,17.07
2023-04-19T11:50:35.153Z,16.85
2023-04-19T11:53:16.578Z,17.00
2023-04-19T11:55:51.908Z,17.38
2023-04-19T11:58:28.553Z,17.20
2023-04-19T12:01:07.177Z,18.15
2023-04-19T12:03:46.840Z,17.76
2023-04-19T12:06:24.448Z,17.26
2023-04-19T12:08:58.351Z,18.25
2023-04-19T12:11:43.707Z,18.34
2023-04-19T12:14:19.145Z,17.77
2023-04-19T12:17:09.561Z,17.57
2023-04-19T12:19:47.067Z,17.61
2023-04-19T12:22:21.953Z,18.40
2023-04-19T12:24:55.877Z,17.60
2023-04-19T12:27:28.663Z,18.35
2023-04-19T12:30:01.427Z,19.10
2023-04-19T12:32:34.220Z,17.72
2023-04-19T12:35:08.026Z,18.78
2023-04-19T12:37:42.120Z,18.63
2023-04-19T12:40:16.286Z,18.19
2023-04-19T12:42:49.940Z,18.39
2023-04-19T12:45:23.075Z,18.05
2023-04-19T12:47:56.276Z,17.53
2023-04-19T12:50:29.829Z,18.81
2023-04-19T12:53:04.466Z,18.89
2023-04-19T12:55:37.571Z,18.73
2023-04-19T12:58:10.460Z,18.37
2023-04-19T13:00:43.527Z,18.35
2023-04-19T13:03:16.926Z,20.21
2023-04-19T13:05:49.983Z,19.64
2023-04-19T13:08:37.193Z,19.53
2023-04-19T13:11:22.767Z,18.74
2023-04-19T13:13:55.866Z,19.08
2023-04-19T13:16:28.770Z,18.79
2023-04-19T13:19:01.775Z,19.22
2023-04-19T13:21:34.809Z,19.11
2023-04-19T13:24:09.419Z,19.63
2023-04-19T13:26:42.387Z,18.50
2023-04-19T13:29:15.261Z,19.17
2023-04-19T13:31:49.260Z,19.61
2023-04-19T13:34:22.324Z,19.80
2023-04-19T13:36:55.345Z,19.48
2023-04-19T13:39:29.565Z,19.52
2023-04-19T13:42:02.640Z,21.08
2023-04-19T13:44:35.639Z,20.18
2023-04-19T13:47:08.490Z,19.59
2023-04-19T13:49:41.553Z,19.90
2023-04-19T13:52:14.344Z,19.78
2023-04-19T13:54:48.796Z,22.23
2023-04-19T13:57:21.728Z,21.06
2023-04-19T13:59:54.537Z,20.30
2023-04-19T14:02:27.589Z,19.38
2023-04-19T14:05:00.491Z,20.99
2023-04-19T14:07:33.805Z,20.04
2023-04-19T14:10:10.063Z,19.49
2023-04-19T14:12:43.021Z,20.57
2023-04-19T14:15:15.915Z,19.83
2023-04-19T14:17:48.833Z,21.60
2023-04-19T14:20:22.020Z,20.62
2023-04-19T14:22:56.068Z,21.26
2023-04-19T14:25:30.935Z,21.73
2023-04-19T14:28:06.054Z,20.31
2023-04-19T14:30:38.911Z,22.13
2023-04-19T14:33:11.826Z,20.98
2023-04-19T14:35:44.906Z,20.70
2023-04-19T14:38:18.069Z,20.49
2023-04-19T14:40:52.327Z,21.69
2023-04-19T14:43:25.971Z,21.03
2023-04-19T14:45:58.870Z,21.99
2023-04-19T14:48:31.708Z,20.40
2023-04-19T14:51:05.095Z,21.99
2023-04-19T14:53:37.924Z,22.17
2023-04-19T14:56:14.366Z,21.66
2023-04-19T14:58:47.692Z,23.53
2023-04-19T15:01:23.115Z,23.81
2023-04-19T15:03:56.044Z,23.50
2023-04-19T15:06:29.228Z,22.73
2023-04-19T15:09:02.010Z,23.80
2023-04-19T15:11:36.183Z,23.12
2023-04-19T15:14:09.653Z,23.11
2023-04-19T15:16:43.058Z,23.71
2023-04-19T15:19:16.207Z,24.48
2023-04-19T15:21:49.438Z,23.46
2023-04-19T15:24:22.228Z,21.84
2023-04-19T15:26:56.668Z,24.86
2023-04-19T15:29:29.499Z,25.05
2023-04-19T15:32:04.503Z,25.20
2023-04-19T15:34:37.403Z,22.36
2023-04-19T15:37:11.249Z,22.14
2023-04-19T15:39:44.265Z,24.79
2023-04-19T15:42:18.477Z,20.95
2023-04-19T15:44:51.324Z,23.09
2023-04-19T15:47:24.231Z,22.25
2023-04-19T15:49:57.356Z,23.74
2023-04-19T15:52:30.177Z,24.01
2023-04-19T15:55:03.278Z,22.99
2023-04-19T15:57:37.722Z,22.89
2023-04-19T16:00:11.838Z,22.74
2023-04-19T16:02:48.944Z,24.63
2023-04-19T16:05:22.067Z,22.19
2023-04-19T16:08:05.875Z,23.44
2023-04-19T16:10:39.333Z,22.28
2023-04-19T16:13:14.383Z,23.42
2023-04-19T16:15:47.387Z,22.25
2023-04-19T16:18:20.743Z,24.14
2023-04-19T16:20:54.415Z,24.61
2023-04-19T16:23:27.434Z,23.84
2023-04-19T16:26:00.403Z,25.80
2023-04-19T16:28:34.879Z,27.23
2023-04-19T16:31:07.747Z,26.74
2023-04-19T16:33:40.642Z,27.83
2023-04-19T16:36:13.436Z,27.04
2023-04-19T16:38:46.721Z,27.92
2023-04-19T16:41:19.493Z,29.76
2023-04-19T16:43:55.990Z,32.17
2023-04-19T16:46:29.293Z,32.71
2023-04-19T16:49:02.219Z,29.92
2023-04-19T16:51:35.390Z,26.34
2023-04-19T16:54:08.246Z,29.33
2023-04-19T16:56:41.102Z,29.13
2023-04-19T16:59:15.561Z,28.34
2023-04-19T17:01:48.601Z,30.32
2023-04-19T17:04:21.616Z,31.94
2023-04-19T17:06:55.550Z,30.57
2023-04-19T17:09:28.395Z,30.09
2023-04-19T17:12:01.978Z,30.34
2023-04-19T17:14:37.037Z,29.24
2023-04-19T17:17:09.883Z,29.26
2023-04-19T17:19:42.693Z,31.91
2023-04-19T17:22:15.899Z,28.83
2023-04-19T17:24:48.978Z,29.77
2023-04-19T17:27:21.830Z,29.97
2023-04-19T17:29:56.305Z,27.20
2023-04-19T17:32:29.335Z,28.37
2023-04-19T17:35:02.518Z,29.73
2023-04-19T17:37:35.683Z,29.31
2023-04-19T17:40:10.472Z,29.70
2023-04-19T17:42:43.458Z,26.24
2023-04-19T17:45:17.644Z,23.88
2023-04-19T17:47:50.364Z,20.96
2023-04-19T17:50:23.247Z,21.00
2023-04-19T17:52:56.259Z,19.52
2023-04-19T17:55:29.075Z,18.72
2023-04-19T17:58:02.027Z,20.21
2023-04-19T18:00:36.298Z,18.50
2023-04-19T18:03:10.957Z,17.28
2023-04-19T18:05:44.345Z,17.21
2023-04-19T18:08:17.245Z,17.73
2023-04-19T18:10:50.916Z,16.78
2023-04-19T18:13:23.802Z,17.13
2023-04-19T18:15:58.211Z,16.15
2023-04-19T18:18:31.071Z,16.03
2023-04-19T18:21:05.741Z,15.87
2023-04-19T18:23:38.586Z,15.91
2023-04-19T18:26:12.041Z,15.48
2023-04-19T18:28:45.200Z,15.17
2023-04-19T18:31:19.392Z,14.59
2023-04-19T18:33:52.223Z,15.40
2023-04-19T18:36:25.164Z,14.76
2023-04-19T18:38:57.994Z,15.21
2023-04-19T18:41:31.012Z,15.35
2023-04-19T18:46:41.017Z,15.25
2023-04-19T18:49:14.013Z,15.38
2023-04-19T18:51:46.836Z,14.60
2023-04-19T18:54:20.261Z,14.52
2023-04-19T18:59:28.894Z,14.24
2023-04-19T19:02:03.133Z,14.89
2023-04-19T19:04:51.202Z,15.06
2023-04-19T19:10:16.996Z,14.55
2023-04-19T19:12:51.701Z,14.66
2023-04-19T19:15:24.684Z,14.12
2023-04-19T19:17:58.797Z,14.32
2023-04-19T19:20:31.838Z,14.25
2023-04-19T19:23:04.701Z,14.17
2023-04-19T19:25:37.504Z,14.37
2023-04-19T19:28:11.356Z,14.30
2023-04-19T19:30:44.961Z,14.03
2023-04-19T19:33:19.650Z,14.30
2023-04-19T19:35:52.342Z,14.24
2023-04-19T19:38:25.618Z,14.16
2023-04-19T19:41:48.987Z,13.01
2023-04-19T19:43:51.233Z,12.90
2023-04-19T19:46:24.294Z,12.91
2023-04-19T19:48:59.012Z,12.85
2023-04-19T19:51:53.382Z,12.88
2023-04-19T19:54:24.888Z,12.80
2023-04-19T19:59:35.008Z,11.92
2023-04-19T20:02:07.973Z,11.87
2023-04-19T20:04:42.402Z,11.94
2023-04-19T20:09:52.345Z,11.82
2023-04-19T20:12:25.330Z,11.84
2023-04-19T20:14:58.321Z,11.63
2023-04-19T20:17:31.210Z,11.15
2023-04-19T20:20:08.828Z,11.13
2023-04-19T20:22:42.261Z,11.19
2023-04-19T20:25:15.164Z,10.89
2023-04-19T20:27:47.984Z,10.87
2023-04-19T20:30:21.028Z,11.04
2023-04-19T20:32:53.977Z,11.20
2023-04-19T20:35:28.639Z,11.09
2023-04-19T20:38:02.696Z,10.99
2023-04-19T20:40:35.817Z,10.63
2023-04-19T20:43:09.175Z,10.64
2023-04-19T20:45:42.192Z,10.81
2023-04-19T20:48:15.255Z,10.99
2023-04-19T20:50:49.883Z,10.68
2023-04-19T20:53:22.698Z,10.49
2023-04-19T20:55:55.682Z,10.28
2023-04-19T20:58:28.531Z,10.36
2023-04-19T21:01:01.383Z,10.37
2023-04-19T21:03:34.475Z,10.39
2023-04-19T21:06:09.177Z,10.37
2023-04-19T21:08:41.983Z,10.22
2023-04-19T21:11:14.892Z,10.26
2023-04-19T21:13:47.744Z,10.13
2023-04-19T21:16:20.705Z,10.23
2023-04-19T21:18:53.595Z,10.07
2023-04-19T21:21:28.011Z,10.08
2023-04-19T21:24:00.926Z,10.07
2023-04-19T21:26:34.323Z,10.06
2023-04-19T21:29:07.128Z,10.06
2023-04-19T21:31:40.031Z,10.13
2023-04-19T21:34:13.049Z,10.01
2023-04-19T21:36:47.245Z,10.27
2023-04-19T21:39:20.093Z,10.18
2023-04-19T21:41:52.884Z,10.00
2023-04-19T21:44:25.761Z,10.15
2023-04-19T21:46:58.651Z,10.05
2023-04-19T21:49:31.893Z,10.09
2023-04-19T21:52:07.114Z,10.24
2023-04-19T21:54:39.933Z,9.98
2023-04-19T21:57:12.811Z,9.95
2023-04-19T21:59:45.603Z,9.95
2023-04-19T22:02:18.476Z,9.88
2023-04-19T22:04:52.606Z,10.00
2023-04-19T22:07:30.693Z,10.04
2023-04-19T22:10:03.568Z,9.82
2023-04-19T22:12:45.148Z,9.60
2023-04-19T22:15:26.250Z,9.44
2023-04-19T22:18:02.709Z,9.58
2023-04-19T22:20:36.705Z,9.51
2023-04-19T22:23:10.925Z,9.66
2023-04-19T22:25:43.702Z,9.27
2023-04-19T22:28:16.511Z,9.24
2023-04-19T22:30:49.743Z,9.25
2023-04-19T22:33:23.079Z,9.42
2023-04-19T22:35:55.969Z,9.38
2023-04-19T22:38:30.133Z,9.31
2023-04-19T22:41:02.953Z,9.31
2023-04-19T22:43:35.759Z,9.24
2023-04-19T22:46:08.573Z,9.07
2023-04-19T22:48:41.577Z,9.13
2023-04-19T22:51:14.457Z,9.15
2023-04-19T22:53:48.899Z,9.15
2023-04-19T22:56:21.730Z,9.30
2023-04-19T22:58:54.537Z,9.13
2023-04-19T23:01:27.485Z,9.20
2023-04-19T23:04:00.342Z,9.15
2023-04-19T23:06:33.738Z,8.98
2023-04-19T23:09:10.756Z,8.88
2023-04-19T23:11:44.974Z,8.89
2023-04-19T23:14:18.363Z,8.92
2023-04-19T23:16:52.175Z,8.99
2023-04-19T23:19:25.315Z,8.90
2023-04-19T23:21:58.156Z,8.88
2023-04-19T23:24:32.325Z,8.82
2023-04-19T23:27:05.757Z,8.91
2023-04-19T23:29:38.582Z,8.98
2023-04-19T23:32:11.411Z,8.84
2023-04-19T23:34:44.194Z,8.94
2023-04-19T23:37:17.101Z,8.71
2023-04-19T23:39:51.383Z,9.01
2023-04-19T23:42:24.151Z,8.97
2023-04-19T23:44:57.203Z,8.97
2023-04-19T23:47:30.288Z,8.59
2023-04-19T23:50:03.737Z,8.52
2023-04-19T23:52:36.647Z,8.57
2023-04-19T23:55:11.160Z,8.56
2023-04-19T23:57:43.974Z,8.62
